sensor_id;sensor_type;location;lat;lon;timestamp;P1;durP1;ratioP1;P2;durP2;ratioP2
69081;SDS011;56184;51.986;5.760;2022-09-21T00:03:33;5.15;;;1.67;;
69081;SDS011;56184;51.986;5.760;2022-09-21T00:06:00;6.82;;;1.75;;
69081;SDS011;56184;51.986;5.760;2022-09-21T00:08:29;3.50;;;1.58;;
69081;SDS011;56184;51.986;5.760;2022-09-21T00:10:55;3.72;;;1.60;;
69081;SDS011;56184;51.986;5.760;2022-09-21T00:13:21;7.93;;;1.90;;
69081;SDS011;56184;51.986;5.760;2022-09-21T00:15:46;8.35;;;2.20;;
69081;SDS011;56184;51.986;5.760;2022-09-21T00:18:12;8.20;;;2.10;;
69081;SDS011;56184;51.986;5.760;2022-09-21T00:20:43;9.75;;;1.80;;
69081;SDS011;56184;51.986;5.760;2022-09-21T00:23:10;5.38;;;2.15;;
69081;SDS011;56184;51.986;5.760;2022-09-21T00:25:36;12.43;;;2.28;;
69081;SDS011;56184;51.986;5.760;2022-09-21T00:28:02;3.70;;;1.90;;
69081;SDS011;56184;51.986;5.760;2022-09-21T00:30:27;7.20;;;2.42;;
69081;SDS011;56184;51.986;5.760;2022-09-21T00:32:53;6.70;;;2.35;;
69081;SDS011;56184;51.986;5.760;2022-09-21T00:35:20;8.23;;;2.50;;
69081;SDS011;56184;51.986;5.760;2022-09-21T00:37:47;7.10;;;2.20;;
69081;SDS011;56184;51.986;5.760;2022-09-21T00:40:12;5.20;;;2.20;;
69081;SDS011;56184;51.986;5.760;2022-09-21T00:42:39;6.00;;;1.80;;
69081;SDS011;56184;51.986;5.760;2022-09-21T00:45:05;5.43;;;2.03;;
69081;SDS011;56184;51.986;5.760;2022-09-21T00:47:35;4.43;;;2.25;;
69081;SDS011;56184;51.986;5.760;2022-09-21T00:50:22;8.37;;;2.40;;
69081;SDS011;56184;51.986;5.760;2022-09-21T00:52:49;3.63;;;1.90;;
69081;SDS011;56184;51.986;5.760;2022-09-21T00:55:24;5.43;;;1.85;;
69081;SDS011;56184;51.986;5.760;2022-09-21T00:58:02;4.72;;;1.80;;
69081;SDS011;56184;51.986;5.760;2022-09-21T01:00:33;5.93;;;1.70;;
69081;SDS011;56184;51.986;5.760;2022-09-21T01:03:03;5.45;;;1.70;;
69081;SDS011;56184;51.986;5.760;2022-09-21T01:05:36;7.70;;;1.50;;
69081;SDS011;56184;51.986;5.760;2022-09-21T01:08:02;2.90;;;1.30;;
69081;SDS011;56184;51.986;5.760;2022-09-21T01:10:31;5.05;;;1.77;;
69081;SDS011;56184;51.986;5.760;2022-09-21T01:15:51;5.40;;;1.95;;
69081;SDS011;56184;51.986;5.760;2022-09-21T01:21:24;5.63;;;1.45;;
69081;SDS011;56184;51.986;5.760;2022-09-21T01:24:15;4.30;;;1.90;;
69081;SDS011;56184;51.986;5.760;2022-09-21T01:29:30;3.60;;;1.17;;
69081;SDS011;56184;51.986;5.760;2022-09-21T01:32:10;7.97;;;1.30;;
69081;SDS011;56184;51.986;5.760;2022-09-21T01:37:34;4.60;;;1.17;;
69081;SDS011;56184;51.986;5.760;2022-09-21T01:40:07;4.45;;;1.13;;
69081;SDS011;56184;51.986;5.760;2022-09-21T01:42:46;6.20;;;1.42;;
69081;SDS011;56184;51.986;5.760;2022-09-21T01:45:14;5.50;;;1.25;;
69081;SDS011;56184;51.986;5.760;2022-09-21T01:47:44;3.88;;;1.40;;
69081;SDS011;56184;51.986;5.760;2022-09-21T01:50:11;3.28;;;1.23;;
69081;SDS011;56184;51.986;5.760;2022-09-21T01:52:39;4.95;;;1.10;;
69081;SDS011;56184;51.986;5.760;2022-09-21T01:55:21;3.63;;;1.15;;
69081;SDS011;56184;51.986;5.760;2022-09-21T02:01:01;3.30;;;1.00;;
69081;SDS011;56184;51.986;5.760;2022-09-21T02:03:39;4.13;;;1.10;;
69081;SDS011;56184;51.986;5.760;2022-09-21T02:06:09;7.95;;;1.08;;
69081;SDS011;56184;51.986;5.760;2022-09-21T02:08:36;6.20;;;1.23;;
69081;SDS011;56184;51.986;5.760;2022-09-21T02:11:04;2.53;;;1.20;;
69081;SDS011;56184;51.986;5.760;2022-09-21T02:13:31;7.00;;;1.20;;
69081;SDS011;56184;51.986;5.760;2022-09-21T02:18:56;4.80;;;1.27;;
69081;SDS011;56184;51.986;5.760;2022-09-21T02:21:47;2.70;;;1.05;;
69081;SDS011;56184;51.986;5.760;2022-09-21T02:45:56;4.47;;;1.27;;
69081;SDS011;56184;51.986;5.760;2022-09-21T02:48:33;4.38;;;1.40;;
69081;SDS011;56184;51.986;5.760;2022-09-21T02:51:06;8.90;;;1.60;;
69081;SDS011;56184;51.986;5.760;2022-09-21T02:53:35;4.07;;;1.27;;
69081;SDS011;56184;51.986;5.760;2022-09-21T02:56:03;2.90;;;1.30;;
69081;SDS011;56184;51.986;5.760;2022-09-21T02:58:36;3.78;;;1.08;;
69081;SDS011;56184;51.986;5.760;2022-09-21T03:01:04;2.15;;;1.23;;
69081;SDS011;56184;51.986;5.760;2022-09-21T03:03:32;2.80;;;1.10;;
69081;SDS011;56184;51.986;5.760;2022-09-21T03:05:59;2.03;;;1.00;;
69081;SDS011;56184;51.986;5.760;2022-09-21T03:08:26;3.58;;;1.20;;
69081;SDS011;56184;51.986;5.760;2022-09-21T03:10:52;3.40;;;1.17;;
69081;SDS011;56184;51.986;5.760;2022-09-21T03:13:18;4.13;;;1.00;;
69081;SDS011;56184;51.986;5.760;2022-09-21T03:15:44;5.30;;;1.60;;
69081;SDS011;56184;51.986;5.760;2022-09-21T03:18:11;4.68;;;1.20;;
69081;SDS011;56184;51.986;5.760;2022-09-21T03:20:38;4.88;;;1.20;;
69081;SDS011;56184;51.986;5.760;2022-09-21T03:23:10;2.30;;;1.20;;
69081;SDS011;56184;51.986;5.760;2022-09-21T03:25:36;4.75;;;1.10;;
69081;SDS011;56184;51.986;5.760;2022-09-21T03:28:02;3.97;;;0.98;;
69081;SDS011;56184;51.986;5.760;2022-09-21T03:30:38;6.38;;;1.30;;
69081;SDS011;56184;51.986;5.760;2022-09-21T03:33:04;2.45;;;1.10;;
69081;SDS011;56184;51.986;5.760;2022-09-21T03:35:30;7.53;;;1.45;;
69081;SDS011;56184;51.986;5.760;2022-09-21T03:37:58;1.52;;;1.02;;
69081;SDS011;56184;51.986;5.760;2022-09-21T03:40:36;1.73;;;1.05;;
69081;SDS011;56184;51.986;5.760;2022-09-21T03:43:02;2.05;;;1.30;;
69081;SDS011;56184;51.986;5.760;2022-09-21T03:45:37;1.60;;;1.10;;
69081;SDS011;56184;51.986;5.760;2022-09-21T03:48:07;1.20;;;0.98;;
69081;SDS011;56184;51.986;5.760;2022-09-21T03:50:33;2.65;;;1.05;;
69081;SDS011;56184;51.986;5.760;2022-09-21T03:53:13;2.85;;;1.00;;
69081;SDS011;56184;51.986;5.760;2022-09-21T03:55:40;4.47;;;0.98;;
69081;SDS011;56184;51.986;5.760;2022-09-21T03:58:06;1.17;;;1.08;;
69081;SDS011;56184;51.986;5.760;2022-09-21T04:00:47;1.65;;;1.00;;
69081;SDS011;56184;51.986;5.760;2022-09-21T04:03:18;3.17;;;1.30;;
69081;SDS011;56184;51.986;5.760;2022-09-21T04:05:44;4.90;;;1.15;;
69081;SDS011;56184;51.986;5.760;2022-09-21T04:08:22;2.17;;;1.35;;
69081;SDS011;56184;51.986;5.760;2022-09-21T04:10:50;1.98;;;1.10;;
69081;SDS011;56184;51.986;5.760;2022-09-21T04:13:15;4.35;;;1.30;;
69081;SDS011;56184;51.986;5.760;2022-09-21T04:15:41;2.20;;;1.38;;
69081;SDS011;56184;51.986;5.760;2022-09-21T04:18:06;4.85;;;1.20;;
69081;SDS011;56184;51.986;5.760;2022-09-21T04:20:32;4.70;;;1.13;;
69081;SDS011;56184;51.986;5.760;2022-09-21T04:23:12;2.97;;;1.30;;
69081;SDS011;56184;51.986;5.760;2022-09-21T04:25:50;5.50;;;1.40;;
69081;SDS011;56184;51.986;5.760;2022-09-21T04:28:17;4.88;;;1.33;;
69081;SDS011;56184;51.986;5.760;2022-09-21T04:30:58;2.33;;;1.10;;
69081;SDS011;56184;51.986;5.760;2022-09-21T04:33:24;1.80;;;1.40;;
69081;SDS011;56184;51.986;5.760;2022-09-21T04:35:55;3.67;;;1.35;;
69081;SDS011;56184;51.986;5.760;2022-09-21T04:38:44;2.80;;;1.30;;
69081;SDS011;56184;51.986;5.760;2022-09-21T04:41:11;1.98;;;1.30;;
69081;SDS011;56184;51.986;5.760;2022-09-21T04:43:40;5.45;;;1.50;;
69081;SDS011;56184;51.986;5.760;2022-09-21T04:48:59;2.90;;;1.50;;
69081;SDS011;56184;51.986;5.760;2022-09-21T04:51:33;2.05;;;1.50;;
69081;SDS011;56184;51.986;5.760;2022-09-21T04:53:59;3.88;;;1.20;;
69081;SDS011;56184;51.986;5.760;2022-09-21T04:56:34;2.20;;;1.23;;
69081;SDS011;56184;51.986;5.760;2022-09-21T05:01:46;2.15;;;0.98;;
69081;SDS011;56184;51.986;5.760;2022-09-21T05:04:12;2.00;;;1.10;;
69081;SDS011;56184;51.986;5.760;2022-09-21T05:06:42;6.82;;;1.25;;
69081;SDS011;56184;51.986;5.760;2022-09-21T05:09:08;1.85;;;1.48;;
69081;SDS011;56184;51.986;5.760;2022-09-21T05:11:52;5.72;;;1.30;;
69081;SDS011;56184;51.986;5.760;2022-09-21T05:14:18;1.67;;;1.20;;
69081;SDS011;56184;51.986;5.760;2022-09-21T05:16:44;2.08;;;1.17;;
69081;SDS011;56184;51.986;5.760;2022-09-21T05:19:13;5.30;;;1.20;;
69081;SDS011;56184;51.986;5.760;2022-09-21T05:21:39;6.85;;;1.13;;
69081;SDS011;56184;51.986;5.760;2022-09-21T05:24:05;4.53;;;1.35;;
69081;SDS011;56184;51.986;5.760;2022-09-21T05:26:30;5.78;;;1.27;;
69081;SDS011;56184;51.986;5.760;2022-09-21T05:28:56;4.65;;;1.13;;
69081;SDS011;56184;51.986;5.760;2022-09-21T05:39:28;3.30;;;1.30;;
69081;SDS011;56184;51.986;5.760;2022-09-21T05:41:54;1.23;;;1.00;;
69081;SDS011;56184;51.986;5.760;2022-09-21T05:44:20;1.75;;;1.10;;
69081;SDS011;56184;51.986;5.760;2022-09-21T05:47:00;2.17;;;1.15;;
69081;SDS011;56184;51.986;5.760;2022-09-21T05:52:33;1.60;;;1.27;;
69081;SDS011;56184;51.986;5.760;2022-09-21T05:55:43;1.63;;;1.33;;
69081;SDS011;56184;51.986;5.760;2022-09-21T06:03:51;1.75;;;1.15;;
69081;SDS011;56184;51.986;5.760;2022-09-21T06:06:19;1.20;;;1.10;;
69081;SDS011;56184;51.986;5.760;2022-09-21T06:08:45;3.45;;;1.20;;
69081;SDS011;56184;51.986;5.760;2022-09-21T06:11:11;5.57;;;1.42;;
69081;SDS011;56184;51.986;5.760;2022-09-21T06:13:37;2.63;;;1.20;;
69081;SDS011;56184;51.986;5.760;2022-09-21T06:16:05;3.60;;;0.93;;
69081;SDS011;56184;51.986;5.760;2022-09-21T06:18:35;3.42;;;1.25;;
69081;SDS011;56184;51.986;5.760;2022-09-21T06:21:04;1.27;;;1.10;;
69081;SDS011;56184;51.986;5.760;2022-09-21T06:23:31;4.63;;;1.17;;
69081;SDS011;56184;51.986;5.760;2022-09-21T06:25:57;5.43;;;1.30;;
69081;SDS011;56184;51.986;5.760;2022-09-21T06:28:23;2.25;;;1.15;;
69081;SDS011;56184;51.986;5.760;2022-09-21T06:30:50;4.25;;;1.35;;
69081;SDS011;56184;51.986;5.760;2022-09-21T06:36:03;1.73;;;1.10;;
69081;SDS011;56184;51.986;5.760;2022-09-21T06:38:29;3.95;;;1.30;;
69081;SDS011;56184;51.986;5.760;2022-09-21T06:40:59;1.52;;;1.05;;
69081;SDS011;56184;51.986;5.760;2022-09-21T06:43:53;2.17;;;1.40;;
69081;SDS011;56184;51.986;5.760;2022-09-21T06:46:20;2.00;;;1.20;;
69081;SDS011;56184;51.986;5.760;2022-09-21T06:48:46;3.10;;;1.20;;
69081;SDS011;56184;51.986;5.760;2022-09-21T06:51:19;2.67;;;1.05;;
69081;SDS011;56184;51.986;5.760;2022-09-21T06:53:45;3.70;;;1.27;;
69081;SDS011;56184;51.986;5.760;2022-09-21T06:56:12;2.05;;;1.42;;
69081;SDS011;56184;51.986;5.760;2022-09-21T07:01:28;2.58;;;1.13;;
69081;SDS011;56184;51.986;5.760;2022-09-21T07:03:54;4.68;;;1.60;;
69081;SDS011;56184;51.986;5.760;2022-09-21T07:06:38;3.30;;;1.42;;
69081;SDS011;56184;51.986;5.760;2022-09-21T07:09:04;9.20;;;6.05;;
69081;SDS011;56184;51.986;5.760;2022-09-21T07:11:41;6.82;;;3.45;;
69081;SDS011;56184;51.986;5.760;2022-09-21T07:14:07;4.35;;;2.28;;
69081;SDS011;56184;51.986;5.760;2022-09-21T07:16:33;5.43;;;3.17;;
69081;SDS011;56184;51.986;5.760;2022-09-21T07:18:58;6.93;;;2.90;;
69081;SDS011;56184;51.986;5.760;2022-09-21T07:21:39;3.40;;;2.65;;
69081;SDS011;56184;51.986;5.760;2022-09-21T07:24:05;5.13;;;2.72;;
69081;SDS011;56184;51.986;5.760;2022-09-21T07:26:30;10.40;;;3.30;;
69081;SDS011;56184;51.986;5.760;2022-09-21T07:28:57;10.20;;;3.97;;
69081;SDS011;56184;51.986;5.760;2022-09-21T07:31:24;11.70;;;3.85;;
69081;SDS011;56184;51.986;5.760;2022-09-21T07:34:06;9.73;;;3.90;;
69081;SDS011;56184;51.986;5.760;2022-09-21T07:36:31;10.07;;;3.83;;
69081;SDS011;56184;51.986;5.760;2022-09-21T07:38:57;11.88;;;4.82;;
69081;SDS011;56184;51.986;5.760;2022-09-21T07:41:23;11.80;;;5.28;;
69081;SDS011;56184;51.986;5.760;2022-09-21T07:43:48;10.52;;;4.75;;
69081;SDS011;56184;51.986;5.760;2022-09-21T07:46:14;12.40;;;4.47;;
69081;SDS011;56184;51.986;5.760;2022-09-21T07:48:44;12.75;;;4.50;;
69081;SDS011;56184;51.986;5.760;2022-09-21T07:51:11;15.85;;;4.80;;
69081;SDS011;56184;51.986;5.760;2022-09-21T07:53:54;12.68;;;3.58;;
69081;SDS011;56184;51.986;5.760;2022-09-21T07:56:20;10.82;;;3.05;;
69081;SDS011;56184;51.986;5.760;2022-09-21T07:58:47;8.00;;;2.75;;
69081;SDS011;56184;51.986;5.760;2022-09-21T08:01:31;5.43;;;2.40;;
69081;SDS011;56184;51.986;5.760;2022-09-21T08:04:02;6.65;;;2.58;;
69081;SDS011;56184;51.986;5.760;2022-09-21T08:06:31;8.73;;;3.03;;
69081;SDS011;56184;51.986;5.760;2022-09-21T08:08:59;9.90;;;2.60;;
69081;SDS011;56184;51.986;5.760;2022-09-21T08:11:26;9.45;;;2.53;;
69081;SDS011;56184;51.986;5.760;2022-09-21T08:13:55;6.70;;;2.70;;
69081;SDS011;56184;51.986;5.760;2022-09-21T08:16:25;6.13;;;2.15;;
69081;SDS011;56184;51.986;5.760;2022-09-21T08:18:51;9.98;;;2.90;;
69081;SDS011;56184;51.986;5.760;2022-09-21T08:21:17;11.27;;;2.85;;
69081;SDS011;56184;51.986;5.760;2022-09-21T08:23:44;9.98;;;2.50;;
69081;SDS011;56184;51.986;5.760;2022-09-21T08:26:12;9.15;;;2.90;;
69081;SDS011;56184;51.986;5.760;2022-09-21T08:28:43;9.85;;;2.72;;
69081;SDS011;56184;51.986;5.760;2022-09-21T08:31:13;11.35;;;2.80;;
69081;SDS011;56184;51.986;5.760;2022-09-21T08:33:39;9.65;;;2.63;;
69081;SDS011;56184;51.986;5.760;2022-09-21T08:36:07;7.50;;;2.33;;
69081;SDS011;56184;51.986;5.760;2022-09-21T08:38:34;10.30;;;2.25;;
69081;SDS011;56184;51.986;5.760;2022-09-21T08:41:03;11.00;;;2.80;;
69081;SDS011;56184;51.986;5.760;2022-09-21T08:43:43;9.05;;;2.03;;
69081;SDS011;56184;51.986;5.760;2022-09-21T08:46:24;8.88;;;1.88;;
69081;SDS011;56184;51.986;5.760;2022-09-21T08:48:57;8.57;;;2.30;;
69081;SDS011;56184;51.986;5.760;2022-09-21T08:51:27;8.82;;;2.00;;
69081;SDS011;56184;51.986;5.760;2022-09-21T08:53:56;8.90;;;2.03;;
69081;SDS011;56184;51.986;5.760;2022-09-21T08:56:39;6.82;;;1.73;;
69081;SDS011;56184;51.986;5.760;2022-09-21T08:59:07;7.53;;;1.77;;
69081;SDS011;56184;51.986;5.760;2022-09-21T09:01:42;7.05;;;2.25;;
69081;SDS011;56184;51.986;5.760;2022-09-21T09:07:38;7.25;;;1.83;;
69081;SDS011;56184;51.986;5.760;2022-09-21T09:10:32;7.72;;;2.47;;
69081;SDS011;56184;51.986;5.760;2022-09-21T09:13:21;6.82;;;2.40;;
69081;SDS011;56184;51.986;5.760;2022-09-21T09:21:52;7.22;;;2.40;;
69081;SDS011;56184;51.986;5.760;2022-09-21T09:26:50;7.53;;;2.50;;
69081;SDS011;56184;51.986;5.760;2022-09-21T09:37:59;11.32;;;2.60;;
69081;SDS011;56184;51.986;5.760;2022-09-21T09:40:47;7.20;;;2.15;;
69081;SDS011;56184;51.986;5.760;2022-09-21T09:46:40;7.78;;;2.30;;
69081;SDS011;56184;51.986;5.760;2022-09-21T09:52:12;5.82;;;2.08;;
69081;SDS011;56184;51.986;5.760;2022-09-21T09:54:40;8.13;;;2.45;;
69081;SDS011;56184;51.986;5.760;2022-09-21T09:57:06;6.07;;;2.05;;
69081;SDS011;56184;51.986;5.760;2022-09-21T09:59:42;8.20;;;2.30;;
69081;SDS011;56184;51.986;5.760;2022-09-21T10:02:20;7.40;;;2.03;;
69081;SDS011;56184;51.986;5.760;2022-09-21T10:07:41;5.57;;;1.80;;
69081;SDS011;56184;51.986;5.760;2022-09-21T10:12:45;6.13;;;1.90;;
69081;SDS011;56184;51.986;5.760;2022-09-21T10:15:11;5.05;;;1.80;;
69081;SDS011;56184;51.986;5.760;2022-09-21T10:17:37;4.88;;;1.48;;
69081;SDS011;56184;51.986;5.760;2022-09-21T10:20:04;6.07;;;1.58;;
69081;SDS011;56184;51.986;5.760;2022-09-21T10:22:32;7.40;;;1.65;;
69081;SDS011;56184;51.986;5.760;2022-09-21T10:24:58;8.07;;;1.63;;
69081;SDS011;56184;51.986;5.760;2022-09-21T10:27:32;3.53;;;1.42;;
69081;SDS011;56184;51.986;5.760;2022-09-21T10:29:59;2.88;;;1.00;;
69081;SDS011;56184;51.986;5.760;2022-09-21T10:32:28;4.18;;;1.10;;
69081;SDS011;56184;51.986;5.760;2022-09-21T10:40:08;4.30;;;1.20;;
69081;SDS011;56184;51.986;5.760;2022-09-21T10:42:48;6.55;;;1.25;;
69081;SDS011;56184;51.986;5.760;2022-09-21T10:45:16;4.85;;;1.20;;
69081;SDS011;56184;51.986;5.760;2022-09-21T10:58:19;6.75;;;1.00;;
69081;SDS011;56184;51.986;5.760;2022-09-21T11:00:46;3.13;;;0.70;;
69081;SDS011;56184;51.986;5.760;2022-09-21T11:06:05;2.50;;;0.80;;
69081;SDS011;56184;51.986;5.760;2022-09-21T11:16:27;2.20;;;0.70;;
69081;SDS011;56184;51.986;5.760;2022-09-21T11:21:50;2.28;;;0.65;;
69081;SDS011;56184;51.986;5.760;2022-09-21T11:27:24;3.08;;;0.70;;
69081;SDS011;56184;51.986;5.760;2022-09-21T11:43:37;4.40;;;0.70;;
69081;SDS011;56184;51.986;5.760;2022-09-21T11:52:13;8.80;;;1.00;;
69081;SDS011;56184;51.986;5.760;2022-09-21T11:54:33;5.88;;;0.90;;
69081;SDS011;56184;51.986;5.760;2022-09-21T11:57:26;3.38;;;0.88;;
69081;SDS011;56184;51.986;5.760;2022-09-21T12:02:36;3.70;;;0.80;;
69081;SDS011;56184;51.986;5.760;2022-09-21T12:05:16;2.88;;;0.68;;
69081;SDS011;56184;51.986;5.760;2022-09-21T12:08:01;3.90;;;0.95;;
69081;SDS011;56184;51.986;5.760;2022-09-21T12:16:10;5.22;;;0.82;;
69081;SDS011;56184;51.986;5.760;2022-09-21T12:19:03;3.97;;;0.80;;
69081;SDS011;56184;51.986;5.760;2022-09-21T12:21:45;3.92;;;0.70;;
69081;SDS011;56184;51.986;5.760;2022-09-21T12:24:20;5.53;;;0.90;;
69081;SDS011;56184;51.986;5.760;2022-09-21T12:26:55;3.22;;;0.82;;
69081;SDS011;56184;51.986;5.760;2022-09-21T12:29:26;2.50;;;0.75;;
69081;SDS011;56184;51.986;5.760;2022-09-21T12:32:53;3.97;;;0.75;;
69081;SDS011;56184;51.986;5.760;2022-09-21T12:35:15;3.20;;;0.68;;
69081;SDS011;56184;51.986;5.760;2022-09-21T12:37:59;1.67;;;0.65;;
69081;SDS011;56184;51.986;5.760;2022-09-21T12:40:49;5.35;;;0.70;;
69081;SDS011;56184;51.986;5.760;2022-09-21T12:48:45;3.95;;;0.77;;
69081;SDS011;56184;51.986;5.760;2022-09-21T12:53:58;4.13;;;0.68;;
69081;SDS011;56184;51.986;5.760;2022-09-21T13:08:01;3.58;;;0.90;;
69081;SDS011;56184;51.986;5.760;2022-09-21T13:13:33;1.35;;;0.60;;
69081;SDS011;56184;51.986;5.760;2022-09-21T13:15:59;3.42;;;0.77;;
69081;SDS011;56184;51.986;5.760;2022-09-21T13:18:31;3.40;;;0.70;;
69081;SDS011;56184;51.986;5.760;2022-09-21T13:21:23;4.45;;;0.80;;
69081;SDS011;56184;51.986;5.760;2022-09-21T13:23:57;5.55;;;1.00;;
69081;SDS011;56184;51.986;5.760;2022-09-21T13:39:42;3.83;;;0.60;;
69081;SDS011;56184;51.986;5.760;2022-09-21T13:44:53;3.17;;;0.77;;
69081;SDS011;56184;51.986;5.760;2022-09-21T13:47:32;2.13;;;0.60;;
69081;SDS011;56184;51.986;5.760;2022-09-21T13:50:00;4.25;;;0.60;;
69081;SDS011;56184;51.986;5.760;2022-09-21T13:52:41;1.83;;;0.63;;
69081;SDS011;56184;51.986;5.760;2022-09-21T13:57:51;4.03;;;0.70;;
69081;SDS011;56184;51.986;5.760;2022-09-21T14:03:34;2.45;;;0.75;;
69081;SDS011;56184;51.986;5.760;2022-09-21T14:06:13;2.17;;;0.68;;
69081;SDS011;56184;51.986;5.760;2022-09-21T14:08:46;4.40;;;0.80;;
69081;SDS011;56184;51.986;5.760;2022-09-21T14:11:16;2.30;;;0.70;;
69081;SDS011;56184;51.986;5.760;2022-09-21T14:13:58;2.33;;;0.50;;
69081;SDS011;56184;51.986;5.760;2022-09-21T14:24:35;4.03;;;1.00;;
69081;SDS011;56184;51.986;5.760;2022-09-21T14:29:56;3.63;;;0.98;;
69081;SDS011;56184;51.986;5.760;2022-09-21T14:32:27;5.28;;;0.98;;
69081;SDS011;56184;51.986;5.760;2022-09-21T14:35:05;5.30;;;0.93;;
69081;SDS011;56184;51.986;5.760;2022-09-21T14:37:46;4.40;;;0.93;;
69081;SDS011;56184;51.986;5.760;2022-09-21T14:40:20;2.95;;;0.77;;
69081;SDS011;56184;51.986;5.760;2022-09-21T14:42:53;4.35;;;0.80;;
69081;SDS011;56184;51.986;5.760;2022-09-21T14:45:24;4.22;;;0.68;;
69081;SDS011;56184;51.986;5.760;2022-09-21T14:48:01;3.58;;;0.90;;
69081;SDS011;56184;51.986;5.760;2022-09-21T14:51:06;2.28;;;0.73;;
69081;SDS011;56184;51.986;5.760;2022-09-21T14:56:59;6.72;;;0.80;;
69081;SDS011;56184;51.986;5.760;2022-09-21T15:02:20;3.35;;;0.70;;
69081;SDS011;56184;51.986;5.760;2022-09-21T15:07:32;4.82;;;0.70;;
69081;SDS011;56184;51.986;5.760;2022-09-21T15:10:49;1.40;;;0.60;;
69081;SDS011;56184;51.986;5.760;2022-09-21T15:21:44;3.13;;;1.20;;
69081;SDS011;56184;51.986;5.760;2022-09-21T15:24:18;4.05;;;0.80;;
69081;SDS011;56184;51.986;5.760;2022-09-21T15:27:10;4.28;;;1.08;;
69081;SDS011;56184;51.986;5.760;2022-09-21T15:29:41;2.45;;;0.88;;
69081;SDS011;56184;51.986;5.760;2022-09-21T15:35:15;4.63;;;0.93;;
69081;SDS011;56184;51.986;5.760;2022-09-21T15:37:46;3.45;;;1.15;;
69081;SDS011;56184;51.986;5.760;2022-09-21T15:40:17;6.68;;;0.90;;
69081;SDS011;56184;51.986;5.760;2022-09-21T15:45:29;2.20;;;0.70;;
69081;SDS011;56184;51.986;5.760;2022-09-21T15:48:26;4.97;;;0.88;;
69081;SDS011;56184;51.986;5.760;2022-09-21T15:51:01;1.75;;;0.77;;
69081;SDS011;56184;51.986;5.760;2022-09-21T15:53:42;2.70;;;0.75;;
69081;SDS011;56184;51.986;5.760;2022-09-21T15:56:18;4.65;;;0.75;;
69081;SDS011;56184;51.986;5.760;2022-09-21T15:58:49;6.07;;;0.95;;
69081;SDS011;56184;51.986;5.760;2022-09-21T16:01:29;3.05;;;0.90;;
69081;SDS011;56184;51.986;5.760;2022-09-21T16:04:02;4.50;;;0.90;;
69081;SDS011;56184;51.986;5.760;2022-09-21T16:06:37;2.45;;;1.20;;
69081;SDS011;56184;51.986;5.760;2022-09-21T16:09:26;3.85;;;1.10;;
69081;SDS011;56184;51.986;5.760;2022-09-21T16:11:56;2.75;;;0.85;;
69081;SDS011;56184;51.986;5.760;2022-09-21T16:14:21;2.20;;;0.98;;
69081;SDS011;56184;51.986;5.760;2022-09-21T16:19:42;4.65;;;0.98;;
69081;SDS011;56184;51.986;5.760;2022-09-21T16:22:43;5.43;;;0.82;;
69081;SDS011;56184;51.986;5.760;2022-09-21T16:28:03;4.32;;;0.98;;
69081;SDS011;56184;51.986;5.760;2022-09-21T16:30:43;2.25;;;0.80;;
69081;SDS011;56184;51.986;5.760;2022-09-21T16:36:50;5.20;;;1.00;;
69081;SDS011;56184;51.986;5.760;2022-09-21T16:38:57;7.35;;;1.20;;
69081;SDS011;56184;51.986;5.760;2022-09-21T16:41:46;8.45;;;1.25;;
69081;SDS011;56184;51.986;5.760;2022-09-21T16:44:14;4.35;;;1.10;;
69081;SDS011;56184;51.986;5.760;2022-09-21T16:46:47;4.88;;;1.30;;
69081;SDS011;56184;51.986;5.760;2022-09-21T16:49:28;3.78;;;1.42;;
69081;SDS011;56184;51.986;5.760;2022-09-21T16:51:57;5.10;;;1.58;;
69081;SDS011;56184;51.986;5.760;2022-09-21T16:54:24;4.72;;;1.80;;
69081;SDS011;56184;51.986;5.760;2022-09-21T16:56:54;9.32;;;1.88;;
69081;SDS011;56184;51.986;5.760;2022-09-21T16:59:22;6.60;;;2.25;;
69081;SDS011;56184;51.986;5.760;2022-09-21T17:01:52;7.20;;;2.00;;
69081;SDS011;56184;51.986;5.760;2022-09-21T17:04:19;7.60;;;1.83;;
69081;SDS011;56184;51.986;5.760;2022-09-21T17:06:47;4.47;;;1.63;;
69081;SDS011;56184;51.986;5.760;2022-09-21T17:11:59;6.45;;;1.42;;
69081;SDS011;56184;51.986;5.760;2022-09-21T17:14:27;9.60;;;1.65;;
69081;SDS011;56184;51.986;5.760;2022-09-21T17:16:59;2.40;;;1.30;;
69081;SDS011;56184;51.986;5.760;2022-09-21T17:19:28;3.58;;;1.20;;
69081;SDS011;56184;51.986;5.760;2022-09-21T17:21:55;8.85;;;1.50;;
69081;SDS011;56184;51.986;5.760;2022-09-21T17:24:20;7.63;;;1.15;;
69081;SDS011;56184;51.986;5.760;2022-09-21T17:26:46;5.70;;;1.10;;
69081;SDS011;56184;51.986;5.760;2022-09-21T17:29:17;3.05;;;0.77;;
69081;SDS011;56184;51.986;5.760;2022-09-21T17:31:50;2.00;;;0.63;;
69081;SDS011;56184;51.986;5.760;2022-09-21T17:34:21;6.65;;;0.85;;
69081;SDS011;56184;51.986;5.760;2022-09-21T17:36:49;3.00;;;0.90;;
69081;SDS011;56184;51.986;5.760;2022-09-21T17:39:14;4.20;;;0.80;;
69081;SDS011;56184;51.986;5.760;2022-09-21T17:41:49;8.52;;;1.10;;
69081;SDS011;56184;51.986;5.760;2022-09-21T17:47:24;3.10;;;0.80;;
69081;SDS011;56184;51.986;5.760;2022-09-21T17:50:28;2.53;;;0.77;;
69081;SDS011;56184;51.986;5.760;2022-09-21T17:52:53;2.67;;;0.77;;
69081;SDS011;56184;51.986;5.760;2022-09-21T17:55:39;5.80;;;0.80;;
69081;SDS011;56184;51.986;5.760;2022-09-21T17:58:24;4.22;;;0.90;;
69081;SDS011;56184;51.986;5.760;2022-09-21T18:04:03;5.55;;;1.10;;
69081;SDS011;56184;51.986;5.760;2022-09-21T18:06:30;5.80;;;0.70;;
69081;SDS011;56184;51.986;5.760;2022-09-21T18:08:58;3.42;;;0.80;;
69081;SDS011;56184;51.986;5.760;2022-09-21T18:11:42;5.32;;;0.85;;
69081;SDS011;56184;51.986;5.760;2022-09-21T18:22:37;3.80;;;0.80;;
69081;SDS011;56184;51.986;5.760;2022-09-21T18:25:31;8.88;;;1.08;;
69081;SDS011;56184;51.986;5.760;2022-09-21T18:28:14;3.05;;;0.90;;
69081;SDS011;56184;51.986;5.760;2022-09-21T18:30:49;3.10;;;1.00;;
69081;SDS011;56184;51.986;5.760;2022-09-21T18:34:22;5.68;;;1.23;;
69081;SDS011;56184;51.986;5.760;2022-09-21T18:36:48;6.68;;;1.30;;
69081;SDS011;56184;51.986;5.760;2022-09-21T18:39:39;5.95;;;1.20;;
69081;SDS011;56184;51.986;5.760;2022-09-21T18:42:20;5.13;;;1.15;;
69081;SDS011;56184;51.986;5.760;2022-09-21T18:44:59;4.95;;;1.05;;
69081;SDS011;56184;51.986;5.760;2022-09-21T18:47:34;5.18;;;1.40;;
69081;SDS011;56184;51.986;5.760;2022-09-21T18:50:14;9.07;;;1.23;;
69081;SDS011;56184;51.986;5.760;2022-09-21T18:52:51;4.63;;;1.50;;
69081;SDS011;56184;51.986;5.760;2022-09-21T18:55:30;3.47;;;1.35;;
69081;SDS011;56184;51.986;5.760;2022-09-21T18:57:57;2.70;;;1.02;;
69081;SDS011;56184;51.986;5.760;2022-09-21T19:00:25;5.20;;;1.10;;
69081;SDS011;56184;51.986;5.760;2022-09-21T19:02:59;4.38;;;0.93;;
69081;SDS011;56184;51.986;5.760;2022-09-21T19:05:26;3.17;;;1.10;;
69081;SDS011;56184;51.986;5.760;2022-09-21T19:07:54;5.78;;;1.27;;
69081;SDS011;56184;51.986;5.760;2022-09-21T19:10:44;3.65;;;1.17;;
69081;SDS011;56184;51.986;5.760;2022-09-21T19:18:23;3.45;;;0.88;;
69081;SDS011;56184;51.986;5.760;2022-09-21T19:21:04;5.28;;;1.00;;
69081;SDS011;56184;51.986;5.760;2022-09-21T19:23:38;4.70;;;1.25;;
69081;SDS011;56184;51.986;5.760;2022-09-21T19:29:19;2.22;;;1.20;;
69081;SDS011;56184;51.986;5.760;2022-09-21T19:32:05;3.58;;;1.15;;
69081;SDS011;56184;51.986;5.760;2022-09-21T19:34:40;3.85;;;1.40;;
69081;SDS011;56184;51.986;5.760;2022-09-21T19:37:06;3.38;;;1.60;;
69081;SDS011;56184;51.986;5.760;2022-09-21T19:39:33;3.58;;;1.38;;
69081;SDS011;56184;51.986;5.760;2022-09-21T19:50:17;4.28;;;1.10;;
69081;SDS011;56184;51.986;5.760;2022-09-21T19:52:45;2.83;;;1.25;;
69081;SDS011;56184;51.986;5.760;2022-09-21T19:55:14;10.20;;;1.23;;
69081;SDS011;56184;51.986;5.760;2022-09-21T19:58:00;1.70;;;1.05;;
69081;SDS011;56184;51.986;5.760;2022-09-21T20:00:53;2.50;;;1.17;;
69081;SDS011;56184;51.986;5.760;2022-09-21T20:03:28;3.38;;;1.30;;